Time;durP1;ratioP1;P1;durP2;ratioP2;P2;SDS_P1;SDS_P2;PMS_P1;PMS_P2;Temp;Humidity;BMP_temperature;BMP_pressure;BME280_temperature;BME280_humidity;BME280_pressure;Samples;Min_cycle;Max_cycle;Signal;HPM_P1;HPM_P2
2021/04/21 05:19:09;;;;;;;29.50;16.87;;;7.80;99.90;;;;;;5053977;24;20225;-89
2021/04/21 05:22:12;;;;;;;29.57;16.43;;;7.80;99.90;;;;;;4734711;30;20219;-88
2021/04/21 05:25:02;;;;;;;38.70;18.47;;;7.90;99.90;;;;;;4735458;30;20199;-85
2021/04/21 05:27:46;;;;;;;31.43;16.27;;;7.90;99.90;;;;;;4734162;30;20594;-85
2021/04/21 05:30:49;;;;;;;27.97;16.67;;;8.10;99.90;;;;;;4942149;24;20296;-84
2021/04/21 05:33:52;;;;;;;29.17;15.17;;;8.10;99.90;;;;;;4728578;30;20245;-86
2021/04/21 05:36:56;;;;;;;28.30;16.13;;;8.10;99.90;;;;;;4724342;30;20187;-85
2021/04/21 05:39:42;;;;;;;26.47;15.57;;;8.20;99.90;;;;;;4690736;30;20197;-84
2021/04/21 05:42:23;;;;;;;27.83;15.60;;;8.30;99.90;;;;;;4680818;30;20689;-85
2021/04/21 05:45:26;;;;;;;28.83;15.33;;;8.40;99.90;;;;;;4718770;30;20284;-84
2021/04/21 05:48:03;;;;;;;23.97;14.77;;;8.60;99.90;;;;;;4744219;30;20544;-86
2021/04/21 05:51:05;;;;;;;22.70;13.13;;;8.70;99.90;;;;;;4747080;30;20219;-84
2021/04/21 05:54:01;;;;;;;27.07;14.63;;;8.70;99.90;;;;;;4747357;30;20255;-86
2021/04/21 05:57:04;;;;;;;25.53;14.50;;;8.80;99.90;;;;;;4735663;30;20192;-84
2021/04/21 05:59:45;;;;;;;21.03;14.53;;;8.90;99.90;;;;;;4735184;30;20190;-85
2021/04/21 06:09:57;;;;;;;27.60;13.93;;;9.10;99.90;;;;;;4977252;24;20748;-83
2021/04/21 06:12:24;;;;;;;24.80;14.70;;;9.10;99.90;;;;;;4779773;29;20214;-82
2021/04/21 06:14:54;;;;;;;24.00;13.87;;;9.10;99.90;;;;;;4756837;30;20205;-79
2021/04/21 06:17:24;;;;;;;24.93;14.43;;;9.10;99.90;;;;;;4764305;30;20193;-78
2021/04/21 06:19:51;;;;;;;25.97;14.37;;;9.20;99.90;;;;;;4759333;30;20349;-80
2021/04/21 06:22:29;;;;;;;23.23;14.30;;;9.20;99.90;;;;;;4765090;30;20218;-80
2021/04/21 06:25:09;;;;;;;27.27;13.90;;;9.20;99.90;;;;;;4751759;30;20623;-80
2021/04/21 06:27:34;;;;;;;24.00;13.73;;;9.30;99.90;;;;;;4761432;30;20727;-79
2021/04/21 06:30:08;;;;;;;21.43;12.97;;;9.30;99.90;;;;;;4752034;30;20281;-79
2021/04/21 06:32:34;;;;;;;23.63;13.93;;;9.40;99.90;;;;;;4766843;30;20267;-78
2021/04/21 06:35:09;;;;;;;22.97;13.73;;;9.40;99.90;;;;;;4754214;30;20198;-78
2021/04/21 06:37:36;;;;;;;25.47;12.83;;;9.50;99.90;;;;;;4755305;30;20194;-78
2021/04/21 06:40:07;;;;;;;17.73;11.80;;;9.40;99.90;;;;;;4761538;30;20197;-81
2021/04/21 06:42:34;;;;;;;19.40;12.33;;;9.40;99.90;;;;;;4762472;30;20209;-79
2021/04/21 06:45:00;;;;;;;22.50;12.53;;;9.40;99.90;;;;;;4762943;30;20187;-79
2021/04/21 06:47:28;;;;;;;25.33;12.57;;;9.50;99.90;;;;;;4766304;30;20194;-79
2021/04/21 06:50:03;;;;;;;26.43;13.03;;;9.60;99.90;;;;;;4771528;30;20236;-79
2021/04/21 06:52:33;;;;;;;23.00;13.73;;;9.60;99.90;;;;;;4771390;30;20186;-80
2021/04/21 06:55:18;;;;;;;24.60;12.53;;;9.70;99.90;;;;;;4771476;30;20662;-79
2021/04/21 06:57:44;;;;;;;24.30;13.13;;;9.80;99.90;;;;;;4771509;30;20185;-80
2021/04/21 07:00:18;;;;;;;22.60;12.57;;;9.80;99.90;;;;;;4771252;30;20190;-80
2021/04/21 07:02:46;;;;;;;25.93;13.40;;;9.90;99.90;;;;;;4771289;30;20219;-80
2021/04/21 07:05:45;;;;;;;23.27;13.20;;;10.00;99.90;;;;;;4770110;30;20201;-79
2021/04/21 07:08:27;;;;;;;22.67;13.40;;;10.10;99.90;;;;;;4750678;30;20557;-79
2021/04/21 07:10:56;;;;;;;22.77;13.50;;;10.30;99.90;;;;;;4771101;30;20194;-79
2021/04/21 07:13:24;;;;;;;22.03;13.37;;;10.40;99.90;;;;;;4771164;30;20281;-78
2021/04/21 07:15:52;;;;;;;20.80;12.33;;;10.50;99.90;;;;;;4771066;30;20186;-82
2021/04/21 07:18:22;;;;;;;22.87;14.27;;;10.60;99.90;;;;;;4769887;29;20189;-78
2021/04/21 07:20:48;;;;;;;20.60;13.70;;;10.60;99.90;;;;;;4762451;30;20190;-78
2021/04/21 07:23:19;;;;;;;27.60;14.37;;;10.70;99.90;;;;;;4767686;30;20280;-79
2021/04/21 07:25:49;;;;;;;29.90;14.53;;;10.80;99.90;;;;;;4770506;30;20187;-78
2021/04/21 07:28:16;;;;;;;26.10;14.60;;;10.80;99.90;;;;;;4770281;30;20178;-79
2021/04/21 07:30:43;;;;;;;27.10;15.30;;;11.00;99.90;;;;;;4757473;30;20237;-79
2021/04/21 07:33:09;;;;;;;24.33;15.20;;;11.00;99.90;;;;;;4770193;30;20277;-79
2021/04/21 07:35:35;;;;;;;27.30;16.17;;;11.10;99.90;;;;;;4769818;30;20217;-80
2021/04/21 07:38:15;;;;;;;26.80;15.70;;;11.10;99.90;;;;;;4763984;30;20210;-80
2021/04/21 07:40:40;;;;;;;28.30;16.13;;;11.20;99.90;;;;;;4752450;30;20187;-80
2021/04/21 07:43:18;;;;;;;29.20;17.80;;;11.40;99.90;;;;;;4752301;30;20714;-81
2021/04/21 07:45:54;;;;;;;28.67;17.10;;;11.50;99.90;;;;;;4752336;30;20205;-82
2021/04/21 07:48:35;;;;;;;28.77;17.50;;;11.50;99.90;;;;;;4761529;30;20189;-80
2021/04/21 07:51:16;;;;;;;31.23;15.80;;;11.60;99.90;;;;;;4770048;30;20189;-79
2021/04/21 07:53:50;;;;;;;25.10;16.07;;;11.80;99.90;;;;;;4768528;29;20194;-80
2021/04/21 07:56:16;;;;;;;26.85;15.98;;;11.80;99.90;;;;;;4769939;30;20194;-80
2021/04/21 07:58:43;;;;;;;30.15;16.70;;;11.80;99.90;;;;;;4769806;30;20185;-80
2021/04/21 08:01:09;;;;;;;54.63;19.43;;;11.80;99.90;;;;;;4769858;30;20214;-81
2021/04/21 08:03:35;;;;;;;28.90;17.00;;;11.80;99.90;;;;;;4762483;30;20665;-80
2021/04/21 08:06:02;;;;;;;29.95;17.10;;;12.00;99.90;;;;;;4770429;30;20539;-80
2021/04/21 08:08:28;;;;;;;27.45;16.40;;;12.00;99.90;;;;;;4759705;30;20229;-80
2021/04/21 08:10:54;;;;;;;29.40;16.33;;;12.10;99.90;;;;;;4759115;30;20197;-81
2021/04/21 08:13:39;;;;;;;39.22;16.85;;;12.20;99.90;;;;;;4752786;30;20187;-82
2021/04/21 08:16:05;;;;;;;23.05;14.88;;;12.40;99.90;;;;;;4750689;30;20226;-79
2021/04/21 08:18:35;;;;;;;24.70;14.90;;;12.40;99.90;;;;;;4752078;30;20214;-80
2021/04/21 08:21:00;;;;;;;25.35;14.63;;;12.40;99.90;;;;;;4751484;30;20209;-80
2021/04/21 08:23:27;;;;;;;25.60;14.65;;;12.50;99.90;;;;;;4750692;30;20235;-81
2021/04/21 08:25:53;;;;;;;21.45;14.13;;;12.70;99.90;;;;;;4762974;30;20653;-80
2021/04/21 08:28:21;;;;;;;23.63;14.05;;;12.80;99.90;;;;;;4762296;29;20187;-81
2021/04/21 08:30:54;;;;;;;23.08;13.90;;;12.90;99.90;;;;;;4748684;30;20194;-83
2021/04/21 08:33:20;;;;;;;43.42;17.40;;;13.20;99.90;;;;;;4750037;30;20191;-81
2021/04/21 08:35:46;;;;;;;25.45;14.82;;;13.20;99.90;;;;;;4749933;30;20207;-83
2021/04/21 08:38:11;;;;;;;24.85;15.25;;;13.10;99.90;;;;;;4763552;30;20249;-82
2021/04/21 08:40:40;;;;;;;24.90;15.40;;;13.20;99.90;;;;;;4749845;30;20199;-81
2021/04/21 08:43:08;;;;;;;22.90;15.25;;;13.40;99.90;;;;;;4751459;30;20219;-80
2021/04/21 08:45:35;;;;;;;23.60;13.75;;;13.50;99.90;;;;;;4751894;30;20191;-81
2021/04/21 08:48:03;;;;;;;21.75;12.85;;;13.70;99.90;;;;;;4754439;30;20182;-81
2021/04/21 08:50:31;;;;;;;21.23;13.50;;;13.60;99.90;;;;;;4755189;30;20190;-80
2021/04/21 08:53:02;;;;;;;29.25;14.52;;;13.60;99.90;;;;;;4755357;30;20214;-81
2021/04/21 08:55:28;;;;;;;26.02;14.10;;;13.70;99.90;;;;;;4755424;30;20225;-81
2021/04/21 08:57:55;;;;;;;24.08;13.45;;;13.90;99.90;;;;;;4755313;30;20193;-80
2021/04/21 09:00:21;;;;;;;22.50;13.75;;;13.90;99.90;;;;;;4755350;30;20270;-80
2021/04/21 09:02:48;;;;;;;25.85;14.73;;;13.90;99.90;;;;;;4753819;30;20654;-80
2021/04/21 09:05:16;;;;;;;24.38;14.63;;;14.10;99.90;;;;;;4755014;30;20198;-81
2021/04/21 09:07:41;;;;;;;23.95;14.45;;;14.30;99.90;;;;;;4755205;30;20700;-82
2021/04/21 09:10:11;;;;;;;26.08;13.75;;;14.40;99.90;;;;;;4753775;30;20329;-83
2021/04/21 09:12:38;;;;;;;17.75;12.70;;;14.30;99.90;;;;;;4754912;30;20197;-83
2021/04/21 09:15:05;;;;;;;18.30;11.35;;;14.20;99.90;;;;;;4755009;30;20191;-83
2021/04/21 09:17:31;;;;;;;14.98;11.13;;;14.30;99.90;;;;;;4754267;30;20191;-83
2021/04/21 09:19:59;;;;;;;17.85;11.45;;;14.40;99.90;;;;;;4754573;30;20186;-85
2021/04/21 09:22:25;;;;;;;18.27;10.82;;;14.40;99.90;;;;;;4754221;30;20220;-83
2021/04/21 09:24:58;;;;;;;16.40;10.75;;;14.40;99.70;;;;;;4754373;30;20191;-83
2021/04/21 09:27:33;;;;;;;21.00;10.50;;;14.40;98.30;;;;;;4754540;30;20675;-83
2021/04/21 09:30:13;;;;;;;17.33;11.43;;;14.40;98.20;;;;;;4754433;30;20409;-84
2021/04/21 09:32:50;;;;;;;19.27;12.68;;;14.30;97.20;;;;;;4754182;30;20753;-82
2021/04/21 09:35:23;;;;;;;18.17;12.55;;;14.40;97.40;;;;;;4768575;30;20552;-81
2021/04/21 09:37:51;;;;;;;18.55;11.23;;;14.60;97.80;;;;;;4754615;30;20263;-83
2021/04/21 09:40:38;;;;;;;19.73;11.60;;;14.80;99.00;;;;;;4754714;30;20277;-84
2021/04/21 09:43:06;;;;;;;17.65;12.05;;;15.00;97.50;;;;;;4767929;29;20624;-81
2021/04/21 09:45:39;;;;;;;20.60;13.18;;;14.90;97.40;;;;;;4754322;30;20212;-88
2021/04/21 09:48:13;;;;;;;19.23;12.70;;;14.90;98.30;;;;;;4754178;30;20241;-80
2021/04/21 09:50:41;;;;;;;20.17;11.27;;;15.20;98.40;;;;;;4753816;30;20183;-81
2021/04/21 09:53:34;;;;;;;19.02;11.82;;;15.40;95.60;;;;;;4753929;30;20536;-81
2021/04/21 09:56:06;;;;;;;20.02;11.00;;;15.50;92.90;;;;;;4754369;30;20268;-80
2021/04/21 09:58:36;;;;;;;18.10;11.63;;;15.50;92.20;;;;;;4753970;30;20183;-83
2021/04/21 10:01:16;;;;;;;17.00;11.52;;;15.50;93.00;;;;;;4754232;30;20209;-83
2021/04/21 10:03:41;;;;;;;16.88;11.95;;;15.40;91.30;;;;;;4771924;30;20288;-82
2021/04/21 10:06:21;;;;;;;16.65;11.32;;;15.40;92.20;;;;;;4772204;30;20285;-83
2021/04/21 10:08:48;;;;;;;19.90;12.55;;;15.60;92.60;;;;;;4752769;30;20238;-82
2021/04/21 10:11:14;;;;;;;15.35;9.85;;;15.60;93.60;;;;;;4753964;30;20194;-83
2021/04/21 10:13:45;;;;;;;15.98;10.77;;;15.70;87.40;;;;;;4764409;30;20224;-85
2021/04/21 10:16:12;;;;;;;15.75;10.30;;;15.70;89.00;;;;;;4784638;30;20189;-84
2021/04/21 10:18:39;;;;;;;14.32;10.60;;;15.70;89.40;;;;;;4761765;30;20190;-83
2021/04/21 10:21:06;;;;;;;19.83;9.80;;;15.80;89.40;;;;;;4762011;30;20205;-85
2021/04/21 10:23:32;;;;;;;22.98;9.77;;;16.00;86.30;;;;;;4762156;30;20198;-84
2021/04/21 10:26:06;;;;;;;18.05;9.57;;;16.00;85.70;;;;;;4762843;30;20647;-85
2021/04/21 10:28:33;;;;;;;12.90;8.88;;;16.00;82.60;;;;;;4776196;30;20186;-83
2021/04/21 10:31:03;;;;;;;15.80;10.23;;;15.70;83.20;;;;;;4759687;30;20561;-84
2021/04/21 10:33:29;;;;;;;17.38;9.30;;;15.50;85.50;;;;;;4760920;29;20210;-81
2021/04/21 10:35:55;;;;;;;20.92;10.35;;;15.40;85.80;;;;;;4762646;30;20183;-82
2021/04/21 10:38:23;;;;;;;14.50;9.30;;;15.30;85.70;;;;;;4755569;30;20593;-82
2021/04/21 10:40:49;;;;;;;17.75;8.52;;;15.60;86.10;;;;;;4769213;30;20185;-80
2021/04/21 10:43:39;;;;;;;14.68;8.35;;;15.90;81.00;;;;;;4761265;30;20249;-83
2021/04/21 10:46:04;;;;;;;11.05;7.95;;;16.00;78.00;;;;;;4762915;30;20198;-81
2021/04/21 10:48:45;;;;;;;14.05;8.52;;;15.90;80.20;;;;;;4764990;30;20186;-83
2021/04/21 10:51:36;;;;;;;13.73;8.73;;;16.00;80.70;;;;;;4776171;30;20227;-84
2021/04/21 10:54:08;;;;;;;15.93;8.35;;;16.10;81.10;;;;;;4762802;30;20201;-82
2021/04/21 10:56:35;;;;;;;9.52;7.78;;;16.30;80.40;;;;;;4762752;30;20190;-81
2021/04/21 10:59:02;;;;;;;10.75;7.07;;;16.40;78.80;;;;;;4760109;30;20660;-82
2021/04/21 11:01:33;;;;;;;11.02;7.40;;;16.10;73.40;;;;;;4760039;30;20267;-84
2021/04/21 11:04:00;;;;;;;12.02;7.65;;;16.10;76.50;;;;;;4761480;30;20187;-82
2021/04/21 11:06:40;;;;;;;10.82;7.18;;;16.20;74.10;;;;;;4759187;30;20656;-80
2021/04/21 11:09:11;;;;;;;13.75;7.53;;;16.30;75.20;;;;;;4760073;30;20231;-81
2021/04/21 11:11:47;;;;;;;10.20;7.70;;;16.50;75.70;;;;;;4761630;29;20198;-80
2021/04/21 11:14:37;;;;;;;12.32;7.90;;;16.60;78.60;;;;;;4763231;30;20186;-80
2021/04/21 11:17:07;;;;;;;11.65;7.72;;;16.80;76.20;;;;;;4762883;30;20186;-80
2021/04/21 11:19:40;;;;;;;20.73;7.30;;;17.00;75.90;;;;;;4760864;30;20297;-81
2021/04/21 11:22:19;;;;;;;10.27;6.70;;;16.90;73.30;;;;;;4775485;30;20206;-81
2021/04/21 11:25:21;;;;;;;17.35;5.53;;;16.60;75.30;;;;;;4775598;29;20785;-84
2021/04/21 11:27:47;;;;;;;15.38;5.25;;;15.80;73.60;;;;;;4762494;30;20673;-81
2021/04/21 11:30:35;;;;;;;8.98;4.43;;;15.10;73.70;;;;;;4760357;30;20208;-80
2021/04/21 11:33:01;;;;;;;7.13;4.35;;;14.80;74.10;;;;;;4756862;30;20652;-80
2021/04/21 11:35:28;;;;;;;11.75;5.18;;;14.60;75.90;;;;;;4761622;30;20186;-81
2021/04/21 11:37:54;;;;;;;9.40;5.22;;;14.50;76.10;;;;;;4760695;30;20271;-80
2021/04/21 11:40:30;;;;;;;10.30;4.63;;;14.40;78.00;;;;;;4760844;30;20214;-80
2021/04/21 11:43:16;;;;;;;7.38;4.65;;;14.30;75.70;;;;;;4759260;30;20229;-80
2021/04/21 11:45:43;;;;;;;10.15;4.82;;;14.20;78.00;;;;;;4760814;30;20697;-80
2021/04/21 11:48:09;;;;;;;6.00;4.50;;;14.10;77.80;;;;;;4761504;30;20960;-79
2021/04/21 11:50:36;;;;;;;10.23;4.85;;;14.10;80.80;;;;;;4761984;30;20174;-81
2021/04/21 11:53:22;;;;;;;12.43;5.05;;;14.20;80.00;;;;;;4761462;30;20250;-81
2021/04/21 11:56:06;;;;;;;13.90;5.43;;;13.90;81.30;;;;;;4761749;30;20182;-82
2021/04/21 11:58:40;;;;;;;14.00;5.43;;;13.80;84.10;;;;;;4775069;29;20312;-83
2021/04/21 12:01:11;;;;;;;18.00;5.43;;;13.50;87.00;;;;;;4761758;30;20246;-80
2021/04/21 12:03:43;;;;;;;14.02;5.50;;;13.50;88.20;;;;;;4759725;30;20191;-81
2021/04/21 12:06:15;;;;;;;10.68;4.75;;;13.40;89.40;;;;;;4764400;30;20197;-81
2021/04/21 12:08:45;;;;;;;12.40;5.07;;;13.00;92.20;;;;;;4761319;30;20237;-80
2021/04/21 12:11:11;;;;;;;7.75;4.60;;;12.80;98.40;;;;;;4772917;30;20208;-80
2021/04/21 12:13:44;;;;;;;8.82;4.97;;;12.40;99.90;;;;;;4759794;29;20675;-80
2021/04/21 12:16:13;;;;;;;10.65;5.72;;;12.20;99.90;;;;;;4765107;30;20243;-80
2021/04/21 12:18:42;;;;;;;6.75;4.97;;;12.00;99.90;;;;;;4774921;30;20652;-80
2021/04/21 12:21:17;;;;;;;15.38;6.10;;;11.70;99.90;;;;;;4760997;30;20192;-80
2021/04/21 12:23:45;;;;;;;7.10;4.60;;;11.60;99.90;;;;;;4765073;30;20246;-80
2021/04/21 12:26:21;;;;;;;9.47;5.17;;;11.40;99.90;;;;;;4763843;30;20303;-79
2021/04/21 12:28:56;;;;;;;10.27;5.60;;;11.40;99.90;;;;;;4763463;30;20196;-80
2021/04/21 12:31:23;;;;;;;8.75;5.30;;;11.40;99.90;;;;;;4764766;30;20215;-80
2021/04/21 12:33:51;;;;;;;8.85;5.53;;;11.50;99.90;;;;;;4764693;30;20771;-79
2021/04/21 12:36:18;;;;;;;7.07;5.05;;;11.70;99.90;;;;;;4763726;30;20178;-80
2021/04/21 12:39:05;;;;;;;8.15;5.13;;;12.00;99.90;;;;;;4764751;30;20314;-82
2021/04/21 12:41:31;;;;;;;6.72;5.15;;;12.60;99.90;;;;;;4765564;30;20563;-81
2021/04/21 12:44:24;;;;;;;8.10;4.63;;;13.30;99.90;;;;;;4755399;29;20198;-81
2021/04/21 12:46:51;;;;;;;8.05;5.35;;;14.00;99.90;;;;;;4755417;30;20261;-82
2021/04/21 12:49:35;;;;;;;8.43;4.47;;;14.80;99.90;;;;;;4755418;30;20196;-81
2021/04/21 12:52:06;;;;;;;8.85;4.35;;;15.40;99.90;;;;;;4757677;30;20246;-81
2021/04/21 12:54:34;;;;;;;6.30;4.50;;;15.70;99.90;;;;;;4762147;30;20273;-83
2021/04/21 12:57:01;;;;;;;8.18;4.18;;;15.40;96.30;;;;;;4755013;30;20232;-81
2021/04/21 12:59:26;;;;;;;6.40;3.92;;;15.30;98.60;;;;;;4768910;30;20279;-82
2021/04/21 13:01:52;;;;;;;11.02;4.00;;;15.10;95.40;;;;;;4768717;30;20277;-82
2021/04/21 13:04:19;;;;;;;4.50;2.95;;;14.80;93.40;;;;;;4753923;30;20284;-82
2021/04/21 13:06:49;;;;;;;7.05;2.83;;;14.40;90.70;;;;;;4754898;30;20179;-81
2021/04/21 13:09:18;;;;;;;5.00;2.88;;;14.10;90.20;;;;;;4768170;30;20246;-80
2021/04/21 13:11:46;;;;;;;7.28;3.25;;;13.90;88.60;;;;;;4754887;30;20273;-80
2021/04/21 13:14:13;;;;;;;7.32;3.00;;;13.80;90.70;;;;;;4763847;30;20671;-81
2021/04/21 13:16:40;;;;;;;3.78;2.72;;;13.70;90.00;;;;;;4771374;30;20276;-82
2021/04/21 13:19:26;;;;;;;5.38;3.08;;;13.50;90.20;;;;;;4770634;29;20205;-80
2021/04/21 13:22:13;;;;;;;4.90;2.63;;;13.40;91.30;;;;;;4771950;30;20213;-81
2021/04/21 13:24:49;;;;;;;6.40;3.10;;;13.30;90.20;;;;;;4772177;30;20190;-80
2021/04/21 13:27:27;;;;;;;4.22;2.92;;;13.20;90.80;;;;;;4771958;30;20548;-82
2021/04/21 13:30:01;;;;;;;5.32;3.28;;;13.20;91.70;;;;;;4772184;30;20189;-80
2021/04/21 13:32:28;;;;;;;4.45;3.30;;;13.40;94.20;;;;;;4771429;30;20692;-80
2021/04/21 13:34:54;;;;;;;3.90;2.85;;;13.50;92.20;;;;;;4772094;30;20223;-78
2021/04/21 13:37:20;;;;;;;6.35;4.07;;;13.70;90.40;;;;;;4772211;30;20182;-79
2021/04/21 13:40:12;;;;;;;4.78;3.35;;;13.90;90.80;;;;;;4772421;30;20190;-79
2021/04/21 13:42:42;;;;;;;6.75;3.97;;;14.20;90.80;;;;;;4770973;29;20679;-80
2021/04/21 13:45:10;;;;;;;5.35;3.60;;;14.80;91.60;;;;;;4772254;30;20182;-83
2021/04/21 13:47:36;;;;;;;4.63;2.90;;;15.30;87.10;;;;;;4772253;30;20186;-78
2021/04/21 13:50:03;;;;;;;7.35;3.60;;;15.40;80.90;;;;;;4771773;30;20190;-79
2021/04/21 13:52:28;;;;;;;7.18;3.92;;;15.10;86.90;;;;;;4772182;30;20221;-81
2021/04/21 13:54:54;;;;;;;8.65;3.70;;;15.50;88.00;;;;;;4771341;30;20696;-81
2021/04/21 13:57:20;;;;;;;13.15;3.97;;;16.00;85.60;;;;;;4775556;30;20556;-80
2021/04/21 13:59:46;;;;;;;5.30;3.80;;;16.20;84.90;;;;;;4783046;30;20197;-81
2021/04/21 14:02:13;;;;;;;7.82;4.07;;;16.60;82.10;;;;;;4777437;30;20218;-80
2021/04/21 14:04:40;;;;;;;5.28;3.80;;;16.70;81.10;;;;;;4770766;30;20686;-80
2021/04/21 14:07:06;;;;;;;4.30;3.45;;;17.00;83.30;;;;;;4771571;30;20190;-81
2021/04/21 14:09:31;;;;;;;3.78;3.30;;;16.70;80.00;;;;;;4770455;30;20245;-80
2021/04/21 14:11:58;;;;;;;7.47;3.40;;;16.30;81.40;;;;;;4785371;30;20229;-80
2021/04/21 14:14:23;;;;;;;6.65;3.50;;;16.20;84.10;;;;;;4770828;30;20648;-81
2021/04/21 14:16:50;;;;;;;7.47;3.72;;;15.60;86.60;;;;;;4770835;30;20217;-80
2021/04/21 14:19:16;;;;;;;4.75;3.42;;;15.40;90.00;;;;;;4768255;30;20611;-81
2021/04/21 14:21:42;;;;;;;5.55;3.60;;;15.70;88.20;;;;;;4769611;30;20241;-81
2021/04/21 14:24:08;;;;;;;10.15;3.92;;;15.40;86.30;;;;;;4760661;29;20648;-78
2021/04/21 14:26:34;;;;;;;4.45;3.33;;;15.50;88.10;;;;;;4760561;30;20274;-81
2021/04/21 14:29:00;;;;;;;5.40;3.97;;;15.70;85.40;;;;;;4751870;30;20664;-88
2021/04/21 14:31:25;;;;;;;5.18;3.85;;;15.80;84.80;;;;;;4750721;30;20182;-80
2021/04/21 14:33:51;;;;;;;4.90;3.80;;;15.90;87.00;;;;;;4752504;30;20224;-80
2021/04/21 14:36:17;;;;;;;6.85;4.65;;;16.00;85.30;;;;;;4757594;30;20280;-82
2021/04/21 14:38:44;;;;;;;4.85;4.13;;;16.20;86.20;;;;;;4762928;30;20258;-81
2021/04/21 14:41:10;;;;;;;9.77;4.22;;;16.10;85.30;;;;;;4776208;30;20678;-80
2021/04/21 14:43:36;;;;;;;6.60;5.10;;;15.60;86.90;;;;;;4776467;30;20201;-80
2021/04/21 14:46:01;;;;;;;4.97;3.80;;;15.20;89.30;;;;;;4760650;30;20187;-81
2021/04/21 14:48:27;;;;;;;5.80;4.05;;;14.90;90.70;;;;;;4759732;30;20669;-82
2021/04/21 14:50:53;;;;;;;7.32;5.00;;;14.60;90.10;;;;;;4762727;30;20213;-81
2021/04/21 14:53:19;;;;;;;11.38;4.97;;;14.30;90.40;;;;;;4766717;30;20202;-81
2021/04/21 14:55:46;;;;;;;5.63;3.97;;;14.10;90.40;;;;;;4771034;30;20221;-80
2021/04/21 14:58:12;;;;;;;7.97;4.70;;;14.50;90.40;;;;;;4769832;30;20243;-81
2021/04/21 15:00:37;;;;;;;7.10;4.05;;;13.80;90.70;;;;;;4774490;30;20186;-80
2021/04/21 15:03:03;;;;;;;6.30;4.00;;;13.70;90.80;;;;;;4752069;30;20264;-81
2021/04/21 15:05:29;;;;;;;10.90;4.68;;;13.70;91.60;;;;;;4757785;30;20195;-81
2021/04/21 15:07:56;;;;;;;9.23;7.30;;;13.70;92.50;;;;;;4767419;30;20193;-81
2021/04/21 15:10:22;;;;;;;25.38;20.02;;;13.70;92.50;;;;;;4763662;29;20242;-80
2021/04/21 15:12:50;;;;;;;10.45;6.53;;;13.70;93.50;;;;;;4763414;30;20198;-79
2021/04/21 15:15:19;;;;;;;7.55;4.43;;;13.70;93.50;;;;;;4762547;30;20671;-80
2021/04/21 15:17:51;;;;;;;6.03;4.72;;;13.60;94.40;;;;;;4764791;30;20239;-80
2021/04/21 15:20:19;;;;;;;9.35;4.88;;;13.60;94.40;;;;;;4761105;30;20186;-82
2021/04/21 15:22:45;;;;;;;7.68;5.05;;;13.60;94.60;;;;;;4760541;30;20300;-80
2021/04/21 15:25:18;;;;;;;8.05;4.80;;;13.50;95.10;;;;;;4760521;30;20345;-83
2021/04/21 15:27:44;;;;;;;9.52;6.80;;;13.50;95.60;;;;;;4760272;30;20289;-80
2021/04/21 15:30:11;;;;;;;10.23;5.03;;;13.50;96.90;;;;;;4761796;30;20194;-80
2021/04/21 15:32:38;;;;;;;8.25;4.70;;;13.50;97.10;;;;;;4761307;30;20187;-81
2021/04/21 15:35:05;;;;;;;6.22;4.38;;;13.50;97.00;;;;;;4762532;30;20185;-79
2021/04/21 15:37:31;;;;;;;5.05;4.15;;;13.40;96.50;;;;;;4770107;30;20220;-80
2021/04/21 15:40:06;;;;;;;5.57;4.10;;;13.40;97.10;;;;;;4770318;30;20279;-81
2021/04/21 15:42:33;;;;;;;7.72;4.05;;;13.30;96.90;;;;;;4767356;30;20343;-81
2021/04/21 15:44:59;;;;;;;9.32;4.53;;;13.30;97.90;;;;;;4754910;30;20207;-81
2021/04/21 15:47:25;;;;;;;11.27;5.00;;;13.30;98.60;;;;;;4757362;30;20649;-80
2021/04/21 15:49:51;;;;;;;10.52;8.23;;;13.20;99.00;;;;;;4760590;30;20679;-80
2021/04/21 15:52:17;;;;;;;13.25;6.65;;;13.20;99.10;;;;;;4752537;30;20479;-81
2021/04/21 15:54:42;;;;;;;12.45;6.63;;;13.20;99.90;;;;;;4764213;30;20285;-83
2021/04/21 15:57:10;;;;;;;13.73;8.02;;;13.20;99.90;;;;;;4750419;30;20265;-82
2021/04/21 15:59:37;;;;;;;15.55;10.35;;;13.30;99.90;;;;;;4750200;30;20225;-82
2021/04/21 16:02:03;;;;;;;13.70;8.35;;;13.30;99.90;;;;;;4751637;30;20221;-80
2021/04/21 16:04:29;;;;;;;9.75;7.28;;;13.30;99.90;;;;;;4751610;30;20194;-81
2021/04/21 16:06:57;;;;;;;10.52;6.20;;;13.30;99.90;;;;;;4751802;30;20186;-82
2021/04/21 16:09:23;;;;;;;11.73;8.00;;;13.30;99.90;;;;;;4752082;30;20321;-81
2021/04/21 16:11:49;;;;;;;8.93;5.95;;;13.30;99.90;;;;;;4752250;30;20190;-81
2021/04/21 16:14:15;;;;;;;11.60;7.13;;;13.30;99.90;;;;;;4752382;30;20195;-81
2021/04/21 16:16:41;;;;;;;10.25;7.15;;;13.40;99.90;;;;;;4752450;30;20612;-81
2021/04/21 16:19:07;;;;;;;11.75;8.48;;;13.40;99.90;;;;;;4750832;30;20187;-82
2021/04/21 16:21:33;;;;;;;10.82;7.15;;;13.40;99.90;;;;;;4752035;30;20222;-81
2021/04/21 16:23:59;;;;;;;13.98;8.02;;;13.40;99.90;;;;;;4752185;30;20508;-80
2021/04/21 16:26:26;;;;;;;10.85;6.05;;;13.40;99.90;;;;;;4750924;30;20234;-81
2021/04/21 16:28:52;;;;;;;10.80;6.47;;;13.40;99.90;;;;;;4765453;30;20293;-80
2021/04/21 16:31:18;;;;;;;10.13;6.28;;;13.40;99.90;;;;;;4751833;30;20696;-79
2021/04/21 16:33:44;;;;;;;7.80;5.30;;;13.40;99.90;;;;;;4752058;30;20210;-80
2021/04/21 16:36:11;;;;;;;11.98;6.68;;;13.30;99.90;;;;;;4751960;30;20573;-80
2021/04/21 16:38:37;;;;;;;14.68;8.15;;;13.30;99.90;;;;;;4750718;30;20187;-79
2021/04/21 16:41:04;;;;;;;8.18;5.93;;;13.40;99.90;;;;;;4751905;30;20189;-81
2021/04/21 16:43:30;;;;;;;11.88;6.97;;;13.40;99.90;;;;;;4751672;30;20248;-80
2021/04/21 16:45:56;;;;;;;11.07;7.60;;;13.40;99.90;;;;;;4751662;29;20190;-80
2021/04/21 16:48:22;;;;;;;10.82;7.22;;;13.40;99.90;;;;;;4751696;30;20615;-81
2021/04/21 16:50:51;;;;;;;11.60;7.95;;;13.40;99.90;;;;;;4751877;30;20190;-79
2021/04/21 16:53:18;;;;;;;15.20;8.25;;;13.30;99.90;;;;;;4751222;30;20225;-80
2021/04/21 16:55:44;;;;;;;14.82;7.78;;;13.20;99.90;;;;;;4751987;30;20724;-80
2021/04/21 16:58:21;;;;;;;19.80;13.85;;;13.10;99.90;;;;;;4751719;30;20669;-81
2021/04/21 17:00:48;;;;;;;24.38;15.85;;;13.10;99.90;;;;;;4751697;30;20186;-81
2021/04/21 17:03:15;;;;;;;21.75;17.05;;;13.10;99.90;;;;;;4751803;30;20215;-81
2021/04/21 17:05:43;;;;;;;16.02;11.95;;;13.10;99.90;;;;;;4750396;30;20211;-80
2021/04/21 17:08:09;;;;;;;13.50;10.60;;;13.10;99.90;;;;;;4752721;30;20183;-82
2021/04/21 17:10:37;;;;;;;17.92;11.15;;;13.00;99.90;;;;;;4754871;30;20268;-84
2021/04/21 17:13:03;;;;;;;31.95;17.10;;;12.90;99.90;;;;;;4754706;30;20260;-82
2021/04/21 17:15:30;;;;;;;25.90;17.48;;;12.90;99.90;;;;;;4754717;30;20187;-80
2021/04/21 17:17:56;;;;;;;18.95;14.30;;;12.80;99.90;;;;;;4754700;30;20276;-79
2021/04/21 17:20:28;;;;;;;18.75;12.40;;;12.70;99.90;;;;;;4768389;30;20233;-81
2021/04/21 17:22:56;;;;;;;30.95;16.52;;;12.60;99.90;;;;;;4754013;30;20249;-80
2021/04/21 17:25:25;;;;;;;25.15;13.85;;;12.60;99.90;;;;;;4762189;30;20194;-81
2021/04/21 17:28:02;;;;;;;17.95;11.73;;;12.50;99.90;;;;;;4755428;30;20237;-79
2021/04/21 17:30:31;;;;;;;22.50;12.90;;;12.40;99.90;;;;;;4754602;30;20179;-80
2021/04/21 17:32:57;;;;;;;17.35;10.80;;;12.40;99.90;;;;;;4754411;30;20714;-80
2021/04/21 17:35:23;;;;;;;15.20;9.70;;;12.30;99.90;;;;;;4754389;30;20252;-82
2021/04/21 17:37:50;;;;;;;12.45;9.48;;;12.20;99.90;;;;;;4754569;30;20633;-81
2021/04/21 17:40:17;;;;;;;17.02;9.77;;;12.10;99.90;;;;;;4754009;30;20557;-80
2021/04/21 17:42:55;;;;;;;16.38;9.40;;;12.10;99.90;;;;;;4753028;30;20214;-84
2021/04/21 17:45:21;;;;;;;12.68;9.23;;;12.00;99.90;;;;;;4752976;30;20183;-81
2021/04/21 17:47:48;;;;;;;16.67;10.35;;;11.90;99.90;;;;;;4753550;30;20213;-81
2021/04/21 17:50:14;;;;;;;20.42;11.65;;;11.80;99.90;;;;;;4752043;30;20202;-79
2021/04/21 17:52:40;;;;;;;25.98;14.48;;;11.70;99.90;;;;;;4752838;30;20195;-85
2021/04/21 17:55:06;;;;;;;23.33;15.57;;;11.60;99.90;;;;;;4752907;30;20675;-80
2021/04/21 17:57:32;;;;;;;22.52;14.75;;;11.60;99.90;;;;;;4766076;30;20182;-81
2021/04/21 18:00:01;;;;;;;21.20;13.45;;;11.50;99.90;;;;;;4753576;30;20648;-79
2021/04/21 18:02:27;;;;;;;22.00;13.10;;;11.50;99.90;;;;;;4767188;29;20291;-81
2021/04/21 18:04:52;;;;;;;43.17;24.50;;;11.50;99.90;;;;;;4751355;30;20759;-81
2021/04/21 18:07:18;;;;;;;64.50;32.75;;;11.40;99.90;;;;;;4751897;30;20190;-81
2021/04/21 18:09:44;;;;;;;56.13;30.80;;;11.30;99.90;;;;;;4751281;30;20692;-82
2021/04/21 18:12:09;;;;;;;46.72;26.90;;;11.20;99.90;;;;;;4752942;30;20190;-83
2021/04/21 18:14:38;;;;;;;65.30;31.90;;;11.20;99.90;;;;;;4752775;30;20186;-80
2021/04/21 18:17:04;;;;;;;48.35;27.27;;;11.20;99.90;;;;;;4752882;30;20190;-80
2021/04/21 18:19:30;;;;;;;42.57;23.20;;;11.10;99.90;;;;;;4756187;30;20643;-81